sensor_id;sensor_type;location;lat;lon;timestamp;P1;durP1;ratioP1;P2;durP2;ratioP2
13303;SDS011;6720;51.958;4.540;2022-08-16T00:00:47;37.87;;;33.40;;
13303;SDS011;6720;51.958;4.540;2022-08-16T00:03:13;36.73;;;32.73;;
13303;SDS011;6720;51.958;4.540;2022-08-16T00:05:38;39.37;;;35.17;;
13303;SDS011;6720;51.958;4.540;2022-08-16T00:08:04;38.50;;;34.60;;
13303;SDS011;6720;51.958;4.540;2022-08-16T00:10:30;39.67;;;35.40;;
13303;SDS011;6720;51.958;4.540;2022-08-16T00:12:57;39.10;;;34.83;;
13303;SDS011;6720;51.958;4.540;2022-08-16T00:15:31;39.67;;;35.37;;
13303;SDS011;6720;51.958;4.540;2022-08-16T00:18:00;39.93;;;34.00;;
13303;SDS011;6720;51.958;4.540;2022-08-16T00:20:26;38.10;;;34.00;;
13303;SDS011;6720;51.958;4.540;2022-08-16T00:22:51;38.17;;;34.20;;
13303;SDS011;6720;51.958;4.540;2022-08-16T00:25:19;37.17;;;33.17;;
13303;SDS011;6720;51.958;4.540;2022-08-16T00:27:47;36.73;;;33.03;;
13303;SDS011;6720;51.958;4.540;2022-08-16T00:30:13;36.43;;;32.37;;
13303;SDS011;6720;51.958;4.540;2022-08-16T00:32:40;36.30;;;32.13;;
13303;SDS011;6720;51.958;4.540;2022-08-16T00:35:08;34.30;;;30.60;;
13303;SDS011;6720;51.958;4.540;2022-08-16T00:37:35;37.73;;;32.77;;
13303;SDS011;6720;51.958;4.540;2022-08-16T00:40:02;33.10;;;29.63;;
13303;SDS011;6720;51.958;4.540;2022-08-16T00:42:30;33.27;;;29.80;;
13303;SDS011;6720;51.958;4.540;2022-08-16T00:44:57;32.07;;;28.87;;
13303;SDS011;6720;51.958;4.540;2022-08-16T00:47:26;33.00;;;29.30;;
13303;SDS011;6720;51.958;4.540;2022-08-16T00:49:52;34.27;;;30.83;;
13303;SDS011;6720;51.958;4.540;2022-08-16T00:52:19;32.53;;;29.13;;
13303;SDS011;6720;51.958;4.540;2022-08-16T00:54:44;32.67;;;29.37;;
13303;SDS011;6720;51.958;4.540;2022-08-16T00:57:10;31.80;;;28.37;;
13303;SDS011;6720;51.958;4.540;2022-08-16T00:59:37;29.63;;;26.63;;
13303;SDS011;6720;51.958;4.540;2022-08-16T01:02:05;30.63;;;27.43;;
13303;SDS011;6720;51.958;4.540;2022-08-16T01:04:33;30.10;;;26.93;;
13303;SDS011;6720;51.958;4.540;2022-08-16T01:07:03;30.97;;;27.80;;
13303;SDS011;6720;51.958;4.540;2022-08-16T01:09:33;29.93;;;27.10;;
13303;SDS011;6720;51.958;4.540;2022-08-16T01:12:02;34.07;;;30.67;;
13303;SDS011;6720;51.958;4.540;2022-08-16T01:14:34;32.03;;;28.43;;
13303;SDS011;6720;51.958;4.540;2022-08-16T01:17:03;31.17;;;28.10;;
13303;SDS011;6720;51.958;4.540;2022-08-16T01:19:34;31.43;;;28.13;;
13303;SDS011;6720;51.958;4.540;2022-08-16T01:22:05;31.33;;;28.07;;
13303;SDS011;6720;51.958;4.540;2022-08-16T01:24:40;31.97;;;27.47;;
13303;SDS011;6720;51.958;4.540;2022-08-16T01:27:17;30.73;;;27.60;;
13303;SDS011;6720;51.958;4.540;2022-08-16T01:29:51;32.47;;;27.77;;
13303;SDS011;6720;51.958;4.540;2022-08-16T01:32:22;32.90;;;29.33;;
13303;SDS011;6720;51.958;4.540;2022-08-16T01:34:48;32.10;;;28.87;;
13303;SDS011;6720;51.958;4.540;2022-08-16T01:37:13;32.53;;;29.10;;
13303;SDS011;6720;51.958;4.540;2022-08-16T01:39:39;34.37;;;30.70;;
13303;SDS011;6720;51.958;4.540;2022-08-16T01:42:06;34.93;;;31.13;;
13303;SDS011;6720;51.958;4.540;2022-08-16T01:44:33;34.10;;;30.50;;
13303;SDS011;6720;51.958;4.540;2022-08-16T01:47:00;35.47;;;31.73;;
13303;SDS011;6720;51.958;4.540;2022-08-16T01:49:27;34.87;;;31.10;;
13303;SDS011;6720;51.958;4.540;2022-08-16T01:51:57;36.87;;;30.93;;
13303;SDS011;6720;51.958;4.540;2022-08-16T01:54:25;35.80;;;32.17;;
13303;SDS011;6720;51.958;4.540;2022-08-16T01:56:50;35.07;;;31.47;;
13303;SDS011;6720;51.958;4.540;2022-08-16T01:59:16;36.80;;;33.00;;
13303;SDS011;6720;51.958;4.540;2022-08-16T02:01:44;39.93;;;34.73;;
13303;SDS011;6720;51.958;4.540;2022-08-16T02:04:11;36.70;;;32.73;;
13303;SDS011;6720;51.958;4.540;2022-08-16T02:06:37;37.60;;;33.73;;
13303;SDS011;6720;51.958;4.540;2022-08-16T02:09:04;36.60;;;32.77;;
13303;SDS011;6720;51.958;4.540;2022-08-16T02:11:32;37.00;;;33.23;;
13303;SDS011;6720;51.958;4.540;2022-08-16T02:13:59;37.73;;;33.73;;
13303;SDS011;6720;51.958;4.540;2022-08-16T02:16:24;36.53;;;32.77;;
13303;SDS011;6720;51.958;4.540;2022-08-16T02:18:50;38.33;;;34.13;;
13303;SDS011;6720;51.958;4.540;2022-08-16T02:21:16;41.13;;;36.80;;
13303;SDS011;6720;51.958;4.540;2022-08-16T02:23:42;42.63;;;34.77;;
13303;SDS011;6720;51.958;4.540;2022-08-16T02:26:09;38.87;;;34.87;;
13303;SDS011;6720;51.958;4.540;2022-08-16T02:28:35;39.83;;;35.50;;
13303;SDS011;6720;51.958;4.540;2022-08-16T02:31:03;39.20;;;34.97;;
13303;SDS011;6720;51.958;4.540;2022-08-16T02:33:31;40.73;;;36.40;;
13303;SDS011;6720;51.958;4.540;2022-08-16T02:35:57;42.03;;;37.43;;
13303;SDS011;6720;51.958;4.540;2022-08-16T02:38:23;40.43;;;36.23;;
13303;SDS011;6720;51.958;4.540;2022-08-16T02:40:49;42.57;;;36.43;;
13303;SDS011;6720;51.958;4.540;2022-08-16T02:43:15;39.57;;;35.43;;
13303;SDS011;6720;51.958;4.540;2022-08-16T02:45:40;41.10;;;34.87;;
13303;SDS011;6720;51.958;4.540;2022-08-16T02:48:06;43.50;;;37.80;;
13303;SDS011;6720;51.958;4.540;2022-08-16T02:50:33;43.17;;;38.40;;
13303;SDS011;6720;51.958;4.540;2022-08-16T02:52:58;42.83;;;38.30;;
13303;SDS011;6720;51.958;4.540;2022-08-16T02:55:24;43.87;;;38.97;;
13303;SDS011;6720;51.958;4.540;2022-08-16T02:57:49;48.07;;;42.40;;
13303;SDS011;6720;51.958;4.540;2022-08-16T03:00:15;45.40;;;40.53;;
13303;SDS011;6720;51.958;4.540;2022-08-16T03:02:41;49.20;;;41.63;;
13303;SDS011;6720;51.958;4.540;2022-08-16T03:05:09;50.30;;;42.63;;
13303;SDS011;6720;51.958;4.540;2022-08-16T03:07:36;47.90;;;41.80;;
13303;SDS011;6720;51.958;4.540;2022-08-16T03:10:03;48.97;;;41.63;;
13303;SDS011;6720;51.958;4.540;2022-08-16T03:12:30;48.83;;;43.60;;
13303;SDS011;6720;51.958;4.540;2022-08-16T03:14:55;48.70;;;42.23;;
13303;SDS011;6720;51.958;4.540;2022-08-16T03:17:21;50.23;;;44.00;;
13303;SDS011;6720;51.958;4.540;2022-08-16T03:19:46;45.77;;;40.80;;
13303;SDS011;6720;51.958;4.540;2022-08-16T03:22:12;49.10;;;43.77;;
13303;SDS011;6720;51.958;4.540;2022-08-16T03:24:37;52.83;;;42.80;;
13303;SDS011;6720;51.958;4.540;2022-08-16T03:27:03;47.30;;;42.10;;
13303;SDS011;6720;51.958;4.540;2022-08-16T03:29:30;60.57;;;53.90;;
13303;SDS011;6720;51.958;4.540;2022-08-16T03:31:58;50.40;;;44.43;;
13303;SDS011;6720;51.958;4.540;2022-08-16T03:34:24;54.07;;;44.03;;
13303;SDS011;6720;51.958;4.540;2022-08-16T03:36:49;57.07;;;50.97;;
13303;SDS011;6720;51.958;4.540;2022-08-16T03:39:15;52.17;;;45.37;;
13303;SDS011;6720;51.958;4.540;2022-08-16T03:41:40;52.60;;;46.87;;
13303;SDS011;6720;51.958;4.540;2022-08-16T03:44:06;51.50;;;45.37;;
13303;SDS011;6720;51.958;4.540;2022-08-16T03:46:32;53.53;;;47.17;;
13303;SDS011;6720;51.958;4.540;2022-08-16T03:48:59;52.67;;;44.67;;
13303;SDS011;6720;51.958;4.540;2022-08-16T03:51:25;53.93;;;47.17;;
13303;SDS011;6720;51.958;4.540;2022-08-16T03:53:51;48.87;;;43.67;;
13303;SDS011;6720;51.958;4.540;2022-08-16T03:56:17;48.27;;;43.00;;
13303;SDS011;6720;51.958;4.540;2022-08-16T03:58:42;51.60;;;44.60;;
13303;SDS011;6720;51.958;4.540;2022-08-16T04:01:07;52.73;;;46.43;;
13303;SDS011;6720;51.958;4.540;2022-08-16T04:03:33;53.50;;;46.83;;
13303;SDS011;6720;51.958;4.540;2022-08-16T04:05:59;53.83;;;46.33;;
13303;SDS011;6720;51.958;4.540;2022-08-16T04:08:24;55.30;;;46.07;;
13303;SDS011;6720;51.958;4.540;2022-08-16T04:10:50;56.73;;;48.07;;
13303;SDS011;6720;51.958;4.540;2022-08-16T04:13:17;57.57;;;48.50;;
13303;SDS011;6720;51.958;4.540;2022-08-16T04:15:42;58.80;;;48.77;;
13303;SDS011;6720;51.958;4.540;2022-08-16T04:18:08;55.00;;;49.00;;
13303;SDS011;6720;51.958;4.540;2022-08-16T04:20:37;57.50;;;48.87;;
13303;SDS011;6720;51.958;4.540;2022-08-16T04:23:12;58.73;;;49.67;;
13303;SDS011;6720;51.958;4.540;2022-08-16T04:25:37;56.00;;;48.83;;
13303;SDS011;6720;51.958;4.540;2022-08-16T04:28:03;56.17;;;47.47;;
13303;SDS011;6720;51.958;4.540;2022-08-16T04:30:28;56.70;;;48.80;;
13303;SDS011;6720;51.958;4.540;2022-08-16T04:32:54;60.13;;;48.27;;
13303;SDS011;6720;51.958;4.540;2022-08-16T04:35:21;54.07;;;48.17;;
13303;SDS011;6720;51.958;4.540;2022-08-16T04:37:47;56.60;;;48.50;;
13303;SDS011;6720;51.958;4.540;2022-08-16T04:40:15;56.70;;;48.90;;
13303;SDS011;6720;51.958;4.540;2022-08-16T04:42:41;52.30;;;45.00;;
13303;SDS011;6720;51.958;4.540;2022-08-16T04:45:08;52.37;;;46.70;;
13303;SDS011;6720;51.958;4.540;2022-08-16T04:47:37;49.10;;;43.80;;
13303;SDS011;6720;51.958;4.540;2022-08-16T04:50:06;50.40;;;44.70;;
13303;SDS011;6720;51.958;4.540;2022-08-16T04:52:34;47.70;;;42.50;;
13303;SDS011;6720;51.958;4.540;2022-08-16T04:55:00;50.83;;;43.97;;
13303;SDS011;6720;51.958;4.540;2022-08-16T04:57:33;47.97;;;42.87;;
13303;SDS011;6720;51.958;4.540;2022-08-16T04:59:59;50.23;;;44.90;;
13303;SDS011;6720;51.958;4.540;2022-08-16T05:02:25;50.40;;;42.97;;
13303;SDS011;6720;51.958;4.540;2022-08-16T05:04:50;56.67;;;50.90;;
13303;SDS011;6720;51.958;4.540;2022-08-16T05:07:15;51.87;;;46.23;;
13303;SDS011;6720;51.958;4.540;2022-08-16T05:09:41;55.90;;;49.23;;
13303;SDS011;6720;51.958;4.540;2022-08-16T05:12:06;51.13;;;45.50;;
13303;SDS011;6720;51.958;4.540;2022-08-16T05:14:31;51.13;;;44.97;;
13303;SDS011;6720;51.958;4.540;2022-08-16T05:16:57;51.43;;;45.93;;
13303;SDS011;6720;51.958;4.540;2022-08-16T05:19:22;50.43;;;44.97;;
13303;SDS011;6720;51.958;4.540;2022-08-16T05:21:49;52.30;;;46.73;;
13303;SDS011;6720;51.958;4.540;2022-08-16T05:24:14;49.50;;;43.70;;
13303;SDS011;6720;51.958;4.540;2022-08-16T05:26:39;51.87;;;45.77;;
13303;SDS011;6720;51.958;4.540;2022-08-16T05:29:05;53.10;;;46.27;;
13303;SDS011;6720;51.958;4.540;2022-08-16T05:31:31;51.60;;;46.20;;
13303;SDS011;6720;51.958;4.540;2022-08-16T05:33:58;53.27;;;44.47;;
13303;SDS011;6720;51.958;4.540;2022-08-16T05:36:25;48.13;;;43.13;;
13303;SDS011;6720;51.958;4.540;2022-08-16T05:38:51;50.17;;;44.67;;
13303;SDS011;6720;51.958;4.540;2022-08-16T05:41:16;51.43;;;45.00;;
13303;SDS011;6720;51.958;4.540;2022-08-16T05:43:41;49.93;;;44.60;;
13303;SDS011;6720;51.958;4.540;2022-08-16T05:46:07;50.60;;;44.60;;
13303;SDS011;6720;51.958;4.540;2022-08-16T05:48:32;50.67;;;45.43;;
13303;SDS011;6720;51.958;4.540;2022-08-16T05:51:00;51.77;;;46.33;;
13303;SDS011;6720;51.958;4.540;2022-08-16T05:53:26;51.67;;;46.33;;
13303;SDS011;6720;51.958;4.540;2022-08-16T05:55:51;48.70;;;43.50;;
13303;SDS011;6720;51.958;4.540;2022-08-16T05:58:16;50.90;;;43.70;;
13303;SDS011;6720;51.958;4.540;2022-08-16T06:00:42;55.50;;;46.90;;
13303;SDS011;6720;51.958;4.540;2022-08-16T06:03:07;53.47;;;47.67;;
13303;SDS011;6720;51.958;4.540;2022-08-16T06:05:32;49.67;;;44.37;;
13303;SDS011;6720;51.958;4.540;2022-08-16T06:07:58;49.93;;;44.53;;
13303;SDS011;6720;51.958;4.540;2022-08-16T06:10:23;51.30;;;45.67;;
13303;SDS011;6720;51.958;4.540;2022-08-16T06:12:49;52.30;;;46.53;;
13303;SDS011;6720;51.958;4.540;2022-08-16T06:15:15;52.37;;;46.63;;
13303;SDS011;6720;51.958;4.540;2022-08-16T06:17:43;52.80;;;45.87;;
13303;SDS011;6720;51.958;4.540;2022-08-16T06:20:10;53.13;;;45.57;;
13303;SDS011;6720;51.958;4.540;2022-08-16T06:22:39;53.70;;;47.80;;
13303;SDS011;6720;51.958;4.540;2022-08-16T06:25:05;55.93;;;48.87;;
13303;SDS011;6720;51.958;4.540;2022-08-16T06:27:31;51.73;;;45.43;;
13303;SDS011;6720;51.958;4.540;2022-08-16T06:29:57;59.83;;;47.90;;
13303;SDS011;6720;51.958;4.540;2022-08-16T06:32:23;57.13;;;48.73;;
13303;SDS011;6720;51.958;4.540;2022-08-16T06:34:48;54.50;;;48.67;;
13303;SDS011;6720;51.958;4.540;2022-08-16T06:37:14;55.50;;;47.10;;
13303;SDS011;6720;51.958;4.540;2022-08-16T06:39:39;55.60;;;49.27;;
13303;SDS011;6720;51.958;4.540;2022-08-16T06:42:05;55.03;;;49.00;;
13303;SDS011;6720;51.958;4.540;2022-08-16T06:44:30;56.20;;;49.97;;
13303;SDS011;6720;51.958;4.540;2022-08-16T06:46:56;56.87;;;50.70;;
13303;SDS011;6720;51.958;4.540;2022-08-16T06:49:21;54.27;;;47.73;;
13303;SDS011;6720;51.958;4.540;2022-08-16T06:51:47;53.03;;;47.40;;
13303;SDS011;6720;51.958;4.540;2022-08-16T06:54:12;54.43;;;48.27;;
13303;SDS011;6720;51.958;4.540;2022-08-16T06:56:37;54.27;;;48.40;;
13303;SDS011;6720;51.958;4.540;2022-08-16T06:59:03;53.77;;;47.07;;
13303;SDS011;6720;51.958;4.540;2022-08-16T07:01:29;54.00;;;48.03;;
13303;SDS011;6720;51.958;4.540;2022-08-16T07:03:54;56.67;;;49.23;;
13303;SDS011;6720;51.958;4.540;2022-08-16T07:06:20;56.80;;;50.13;;
13303;SDS011;6720;51.958;4.540;2022-08-16T07:08:46;56.27;;;50.07;;
13303;SDS011;6720;51.958;4.540;2022-08-16T07:11:13;57.17;;;49.57;;
13303;SDS011;6720;51.958;4.540;2022-08-16T07:13:39;54.90;;;48.97;;
13303;SDS011;6720;51.958;4.540;2022-08-16T07:16:05;59.03;;;49.07;;
13303;SDS011;6720;51.958;4.540;2022-08-16T07:18:31;58.17;;;51.77;;
13303;SDS011;6720;51.958;4.540;2022-08-16T07:20:57;57.97;;;51.60;;
13303;SDS011;6720;51.958;4.540;2022-08-16T07:23:22;59.73;;;51.10;;
13303;SDS011;6720;51.958;4.540;2022-08-16T07:25:49;60.47;;;52.27;;
13303;SDS011;6720;51.958;4.540;2022-08-16T07:28:15;59.37;;;50.67;;
13303;SDS011;6720;51.958;4.540;2022-08-16T07:30:42;61.53;;;53.63;;
13303;SDS011;6720;51.958;4.540;2022-08-16T07:33:11;61.77;;;51.80;;
13303;SDS011;6720;51.958;4.540;2022-08-16T07:35:38;57.93;;;51.17;;
13303;SDS011;6720;51.958;4.540;2022-08-16T07:38:05;62.37;;;52.07;;
13303;SDS011;6720;51.958;4.540;2022-08-16T07:40:31;57.90;;;51.30;;
13303;SDS011;6720;51.958;4.540;2022-08-16T07:43:00;59.07;;;50.93;;
13303;SDS011;6720;51.958;4.540;2022-08-16T07:45:26;59.30;;;51.73;;
13303;SDS011;6720;51.958;4.540;2022-08-16T07:47:52;58.77;;;51.73;;
13303;SDS011;6720;51.958;4.540;2022-08-16T07:50:17;57.97;;;51.50;;
13303;SDS011;6720;51.958;4.540;2022-08-16T07:52:43;58.57;;;51.47;;
13303;SDS011;6720;51.958;4.540;2022-08-16T07:55:10;56.67;;;50.57;;
13303;SDS011;6720;51.958;4.540;2022-08-16T07:57:38;56.93;;;49.67;;
13303;SDS011;6720;51.958;4.540;2022-08-16T08:00:04;58.60;;;52.33;;
13303;SDS011;6720;51.958;4.540;2022-08-16T08:02:30;59.80;;;52.53;;
13303;SDS011;6720;51.958;4.540;2022-08-16T08:04:55;62.07;;;53.70;;
13303;SDS011;6720;51.958;4.540;2022-08-16T08:07:21;57.27;;;51.17;;
13303;SDS011;6720;51.958;4.540;2022-08-16T08:09:48;58.57;;;52.13;;
13303;SDS011;6720;51.958;4.540;2022-08-16T08:12:13;57.43;;;51.13;;
13303;SDS011;6720;51.958;4.540;2022-08-16T08:14:38;58.10;;;51.97;;
13303;SDS011;6720;51.958;4.540;2022-08-16T08:17:04;58.47;;;51.70;;
13303;SDS011;6720;51.958;4.540;2022-08-16T08:19:31;60.43;;;53.97;;
13303;SDS011;6720;51.958;4.540;2022-08-16T08:21:59;56.40;;;50.20;;
13303;SDS011;6720;51.958;4.540;2022-08-16T08:24:25;63.73;;;54.00;;
13303;SDS011;6720;51.958;4.540;2022-08-16T08:26:51;62.97;;;54.17;;
13303;SDS011;6720;51.958;4.540;2022-08-16T08:29:18;60.00;;;53.50;;
13303;SDS011;6720;51.958;4.540;2022-08-16T08:31:43;58.37;;;52.23;;
13303;SDS011;6720;51.958;4.540;2022-08-16T08:34:09;65.17;;;56.37;;
13303;SDS011;6720;51.958;4.540;2022-08-16T08:36:34;66.73;;;56.43;;
13303;SDS011;6720;51.958;4.540;2022-08-16T08:39:03;64.53;;;56.27;;
13303;SDS011;6720;51.958;4.540;2022-08-16T08:41:29;66.67;;;57.13;;
13303;SDS011;6720;51.958;4.540;2022-08-16T08:43:55;68.23;;;56.93;;
13303;SDS011;6720;51.958;4.540;2022-08-16T08:46:22;62.47;;;53.33;;
13303;SDS011;6720;51.958;4.540;2022-08-16T08:48:49;64.07;;;56.13;;
13303;SDS011;6720;51.958;4.540;2022-08-16T08:51:15;67.90;;;56.93;;
13303;SDS011;6720;51.958;4.540;2022-08-16T08:53:42;62.87;;;55.97;;
13303;SDS011;6720;51.958;4.540;2022-08-16T08:56:09;65.93;;;55.03;;
13303;SDS011;6720;51.958;4.540;2022-08-16T08:58:34;61.07;;;54.17;;
13303;SDS011;6720;51.958;4.540;2022-08-16T09:01:02;66.67;;;54.90;;
13303;SDS011;6720;51.958;4.540;2022-08-16T09:03:29;56.73;;;50.57;;
13303;SDS011;6720;51.958;4.540;2022-08-16T09:05:54;57.47;;;51.23;;
13303;SDS011;6720;51.958;4.540;2022-08-16T09:08:20;54.33;;;48.63;;
13303;SDS011;6720;51.958;4.540;2022-08-16T09:10:45;56.13;;;50.40;;
13303;SDS011;6720;51.958;4.540;2022-08-16T09:13:11;55.57;;;49.43;;
13303;SDS011;6720;51.958;4.540;2022-08-16T09:15:36;52.23;;;46.67;;
13303;SDS011;6720;51.958;4.540;2022-08-16T09:18:02;52.80;;;47.37;;
13303;SDS011;6720;51.958;4.540;2022-08-16T09:20:29;51.60;;;46.03;;
13303;SDS011;6720;51.958;4.540;2022-08-16T09:22:56;49.87;;;44.70;;
13303;SDS011;6720;51.958;4.540;2022-08-16T09:25:22;48.67;;;43.77;;
13303;SDS011;6720;51.958;4.540;2022-08-16T09:27:48;48.87;;;43.93;;
13303;SDS011;6720;51.958;4.540;2022-08-16T09:30:13;49.43;;;44.33;;
13303;SDS011;6720;51.958;4.540;2022-08-16T09:32:39;46.60;;;41.90;;
13303;SDS011;6720;51.958;4.540;2022-08-16T09:35:05;44.90;;;40.47;;
13303;SDS011;6720;51.958;4.540;2022-08-16T09:37:32;45.57;;;40.80;;
13303;SDS011;6720;51.958;4.540;2022-08-16T09:39:58;44.77;;;40.17;;
13303;SDS011;6720;51.958;4.540;2022-08-16T09:42:24;44.73;;;40.33;;
13303;SDS011;6720;51.958;4.540;2022-08-16T09:44:51;43.77;;;39.40;;
13303;SDS011;6720;51.958;4.540;2022-08-16T09:47:16;43.27;;;39.03;;
13303;SDS011;6720;51.958;4.540;2022-08-16T09:49:42;44.67;;;40.07;;
13303;SDS011;6720;51.958;4.540;2022-08-16T09:52:08;44.27;;;39.73;;
13303;SDS011;6720;51.958;4.540;2022-08-16T09:54:34;41.17;;;37.17;;
13303;SDS011;6720;51.958;4.540;2022-08-16T09:57:00;41.87;;;37.60;;
13303;SDS011;6720;51.958;4.540;2022-08-16T09:59:26;42.00;;;37.90;;
13303;SDS011;6720;51.958;4.540;2022-08-16T10:01:52;41.93;;;38.00;;
13303;SDS011;6720;51.958;4.540;2022-08-16T10:04:18;40.47;;;36.47;;
13303;SDS011;6720;51.958;4.540;2022-08-16T10:06:44;40.90;;;36.80;;
13303;SDS011;6720;51.958;4.540;2022-08-16T10:09:11;37.73;;;34.23;;
13303;SDS011;6720;51.958;4.540;2022-08-16T10:11:39;42.60;;;38.30;;
13303;SDS011;6720;51.958;4.540;2022-08-16T10:14:24;37.97;;;34.17;;
13303;SDS011;6720;51.958;4.540;2022-08-16T10:16:54;39.10;;;35.27;;
13303;SDS011;6720;51.958;4.540;2022-08-16T10:19:21;38.63;;;35.00;;
13303;SDS011;6720;51.958;4.540;2022-08-16T10:21:47;40.50;;;36.43;;
13303;SDS011;6720;51.958;4.540;2022-08-16T10:24:14;36.37;;;32.67;;
13303;SDS011;6720;51.958;4.540;2022-08-16T10:26:39;37.53;;;33.83;;
13303;SDS011;6720;51.958;4.540;2022-08-16T10:29:05;38.80;;;35.13;;
13303;SDS011;6720;51.958;4.540;2022-08-16T10:31:31;39.20;;;35.23;;
13303;SDS011;6720;51.958;4.540;2022-08-16T10:33:57;37.63;;;33.77;;
13303;SDS011;6720;51.958;4.540;2022-08-16T10:36:25;39.37;;;34.80;;
13303;SDS011;6720;51.958;4.540;2022-08-16T10:38:50;37.40;;;33.70;;
13303;SDS011;6720;51.958;4.540;2022-08-16T10:41:15;36.40;;;32.70;;
13303;SDS011;6720;51.958;4.540;2022-08-16T10:43:41;40.77;;;36.87;;
13303;SDS011;6720;51.958;4.540;2022-08-16T10:46:08;37.40;;;33.73;;
13303;SDS011;6720;51.958;4.540;2022-08-16T10:48:39;39.73;;;35.83;;
13303;SDS011;6720;51.958;4.540;2022-08-16T10:51:06;37.23;;;33.53;;
13303;SDS011;6720;51.958;4.540;2022-08-16T10:53:32;37.77;;;34.13;;
13303;SDS011;6720;51.958;4.540;2022-08-16T10:55:59;35.27;;;31.97;;
13303;SDS011;6720;51.958;4.540;2022-08-16T10:58:32;36.50;;;33.07;;
13303;SDS011;6720;51.958;4.540;2022-08-16T11:00:58;36.47;;;33.00;;
13303;SDS011;6720;51.958;4.540;2022-08-16T11:03:24;34.37;;;31.00;;
13303;SDS011;6720;51.958;4.540;2022-08-16T11:05:51;37.77;;;33.97;;
13303;SDS011;6720;51.958;4.540;2022-08-16T11:08:16;34.43;;;31.10;;
13303;SDS011;6720;51.958;4.540;2022-08-16T11:10:43;33.57;;;30.13;;
13303;SDS011;6720;51.958;4.540;2022-08-16T11:13:14;35.33;;;31.83;;
13303;SDS011;6720;51.958;4.540;2022-08-16T11:15:42;33.23;;;30.07;;
13303;SDS011;6720;51.958;4.540;2022-08-16T11:18:09;37.50;;;33.63;;
13303;SDS011;6720;51.958;4.540;2022-08-16T11:20:35;37.27;;;33.77;;
13303;SDS011;6720;51.958;4.540;2022-08-16T11:23:00;36.70;;;33.30;;
13303;SDS011;6720;51.958;4.540;2022-08-16T11:25:27;35.07;;;31.90;;
13303;SDS011;6720;51.958;4.540;2022-08-16T11:27:54;35.37;;;31.87;;
13303;SDS011;6720;51.958;4.540;2022-08-16T11:30:21;35.30;;;31.80;;
13303;SDS011;6720;51.958;4.540;2022-08-16T11:32:48;37.60;;;33.80;;
13303;SDS011;6720;51.958;4.540;2022-08-16T11:35:15;36.03;;;32.73;;
13303;SDS011;6720;51.958;4.540;2022-08-16T11:37:45;35.53;;;32.10;;
13303;SDS011;6720;51.958;4.540;2022-08-16T11:40:12;36.17;;;32.90;;
13303;SDS011;6720;51.958;4.540;2022-08-16T11:42:39;34.17;;;30.97;;
13303;SDS011;6720;51.958;4.540;2022-08-16T11:45:04;35.77;;;32.07;;
13303;SDS011;6720;51.958;4.540;2022-08-16T11:47:30;34.27;;;31.10;;
13303;SDS011;6720;51.958;4.540;2022-08-16T11:49:56;33.00;;;29.73;;
13303;SDS011;6720;51.958;4.540;2022-08-16T11:52:21;31.40;;;28.07;;
13303;SDS011;6720;51.958;4.540;2022-08-16T11:54:47;30.77;;;27.80;;
13303;SDS011;6720;51.958;4.540;2022-08-16T11:57:13;33.70;;;30.40;;
13303;SDS011;6720;51.958;4.540;2022-08-16T11:59:39;34.50;;;30.87;;
13303;SDS011;6720;51.958;4.540;2022-08-16T12:02:04;32.33;;;29.20;;
13303;SDS011;6720;51.958;4.540;2022-08-16T12:04:34;30.80;;;27.73;;
13303;SDS011;6720;51.958;4.540;2022-08-16T12:07:00;31.87;;;28.70;;
13303;SDS011;6720;51.958;4.540;2022-08-16T12:09:26;31.43;;;28.07;;
13303;SDS011;6720;51.958;4.540;2022-08-16T12:11:52;32.60;;;29.43;;
13303;SDS011;6720;51.958;4.540;2022-08-16T12:14:18;29.23;;;26.30;;
13303;SDS011;6720;51.958;4.540;2022-08-16T12:16:43;29.07;;;26.27;;
13303;SDS011;6720;51.958;4.540;2022-08-16T12:19:09;28.47;;;25.70;;
13303;SDS011;6720;51.958;4.540;2022-08-16T12:21:35;27.50;;;24.90;;
13303;SDS011;6720;51.958;4.540;2022-08-16T12:24:01;29.77;;;26.87;;
13303;SDS011;6720;51.958;4.540;2022-08-16T12:26:27;31.53;;;28.53;;
13303;SDS011;6720;51.958;4.540;2022-08-16T12:28:52;27.90;;;25.20;;
13303;SDS011;6720;51.958;4.540;2022-08-16T12:31:21;29.07;;;26.07;;
13303;SDS011;6720;51.958;4.540;2022-08-16T12:33:46;25.37;;;22.97;;
13303;SDS011;6720;51.958;4.540;2022-08-16T12:36:12;24.43;;;21.87;;
13303;SDS011;6720;51.958;4.540;2022-08-16T12:38:38;23.53;;;21.23;;
13303;SDS011;6720;51.958;4.540;2022-08-16T12:41:03;25.77;;;23.43;;
13303;SDS011;6720;51.958;4.540;2022-08-16T12:43:29;24.70;;;22.23;;
13303;SDS011;6720;51.958;4.540;2022-08-16T12:45:55;24.07;;;21.87;;
13303;SDS011;6720;51.958;4.540;2022-08-16T12:48:23;23.67;;;21.17;;
13303;SDS011;6720;51.958;4.540;2022-08-16T12:51:10;21.70;;;19.50;;
13303;SDS011;6720;51.958;4.540;2022-08-16T12:53:38;22.97;;;20.30;;
13303;SDS011;6720;51.958;4.540;2022-08-16T12:56:05;22.40;;;20.20;;
13303;SDS011;6720;51.958;4.540;2022-08-16T12:58:31;22.27;;;20.07;;
13303;SDS011;6720;51.958;4.540;2022-08-16T13:00:57;22.50;;;20.30;;
13303;SDS011;6720;51.958;4.540;2022-08-16T13:03:23;20.23;;;17.97;;
13303;SDS011;6720;51.958;4.540;2022-08-16T13:05:51;20.63;;;18.57;;
13303;SDS011;6720;51.958;4.540;2022-08-16T13:08:17;21.90;;;19.90;;
13303;SDS011;6720;51.958;4.540;2022-08-16T13:10:44;22.70;;;20.60;;
13303;SDS011;6720;51.958;4.540;2022-08-16T13:13:13;21.47;;;19.33;;
13303;SDS011;6720;51.958;4.540;2022-08-16T13:15:45;21.40;;;19.20;;
13303;SDS011;6720;51.958;4.540;2022-08-16T13:18:10;19.70;;;18.00;;
13303;SDS011;6720;51.958;4.540;2022-08-16T13:20:35;20.70;;;18.77;;
13303;SDS011;6720;51.958;4.540;2022-08-16T13:23:03;17.43;;;15.73;;
13303;SDS011;6720;51.958;4.540;2022-08-16T13:25:30;22.17;;;20.07;;
13303;SDS011;6720;51.958;4.540;2022-08-16T13:27:57;19.23;;;17.33;;
13303;SDS011;6720;51.958;4.540;2022-08-16T13:30:24;21.87;;;19.83;;
13303;SDS011;6720;51.958;4.540;2022-08-16T13:32:51;18.17;;;16.33;;
13303;SDS011;6720;51.958;4.540;2022-08-16T13:35:17;21.20;;;19.00;;
13303;SDS011;6720;51.958;4.540;2022-08-16T13:37:43;20.87;;;18.33;;
13303;SDS011;6720;51.958;4.540;2022-08-16T13:40:08;18.93;;;15.23;;
13303;SDS011;6720;51.958;4.540;2022-08-16T13:42:34;17.13;;;15.47;;
13303;SDS011;6720;51.958;4.540;2022-08-16T13:45:02;18.97;;;17.07;;
13303;SDS011;6720;51.958;4.540;2022-08-16T13:47:29;17.10;;;15.33;;
13303;SDS011;6720;51.958;4.540;2022-08-16T13:49:55;15.27;;;13.70;;
13303;SDS011;6720;51.958;4.540;2022-08-16T13:52:21;12.70;;;11.37;;
13303;SDS011;6720;51.958;4.540;2022-08-16T13:54:48;12.57;;;9.90;;
13303;SDS011;6720;51.958;4.540;2022-08-16T13:57:13;12.57;;;9.53;;
13303;SDS011;6720;51.958;4.540;2022-08-16T13:59:40;11.50;;;10.10;;
13303;SDS011;6720;51.958;4.540;2022-08-16T14:04:33;10.33;;;9.33;;
13303;SDS011;6720;51.958;4.540;2022-08-16T14:07:02;10.03;;;8.77;;
13303;SDS011;6720;51.958;4.540;2022-08-16T14:09:28;8.63;;;7.83;;
13303;SDS011;6720;51.958;4.540;2022-08-16T14:11:56;11.80;;;8.40;;
13303;SDS011;6720;51.958;4.540;2022-08-16T14:14:23;9.13;;;8.33;;
13303;SDS011;6720;51.958;4.540;2022-08-16T14:16:49;10.63;;;8.73;;
13303;SDS011;6720;51.958;4.540;2022-08-16T14:19:15;10.77;;;9.77;;
13303;SDS011;6720;51.958;4.540;2022-08-16T14:21:45;15.63;;;14.03;;
13303;SDS011;6720;51.958;4.540;2022-08-16T14:24:11;12.77;;;11.10;;
13303;SDS011;6720;51.958;4.540;2022-08-16T14:26:41;18.83;;;17.03;;
13303;SDS011;6720;51.958;4.540;2022-08-16T14:29:08;17.80;;;15.80;;
13303;SDS011;6720;51.958;4.540;2022-08-16T14:31:35;17.27;;;15.47;;
13303;SDS011;6720;51.958;4.540;2022-08-16T14:34:01;20.23;;;16.53;;